Seadream 1 — C6PW8 — position and weather

sailwx.info

Track history (hours):
 
Tides and Currents Weather Stations Pressure Air Temp Water Temp Dewpoint Dewpoint Depression Visibility Wind Speed Wind Dir Waves Ship Positions

Seadream 1

Last reported at 2017-Sep-25 06:21 UTC. Time now 2017-Sep-26 03:59 UTC.
Position N 37°60' E 022°53'.

Length 105 m; draft 4.3 m.

Type: Ship. MMSI: 308908000.

Date/timePositionNaut miles runAvg speedWind from/ knotsBaromVisibWave heightAir tempDewpointWater temp
2017-Sep-25 06:21N 37°60' E 022°53'413.0
2017-Sep-25 06:00N 37°57' E 022°57'3 4.5
2017-Sep-25 05:21N 37°55' E 023°00'2 4.9
2017-Sep-25 05:01N 37°54' E 023°02'3 5.2
2017-Sep-25 04:30N 37°53' E 023°05'4 7.2
2017-Sep-25 04:00N 37°51' E 023°08'4 7.1
2017-Sep-25 03:30N 37°48' E 023°12'4 7.5
2017-Sep-25 03:01N 37°46' E 023°15'4 7.4
2017-Sep-25 02:29N 37°42' E 023°17'3 6.6
2017-Sep-25 02:00N 37°40' E 023°20'4 7.4
2017-Sep-25 01:30N 37°39' E 023°24'4 7.4
2017-Sep-25 01:01N 37°38' E 023°29'4 7.4
2017-Sep-25 00:30N 37°37' E 023°33'3 6.8
2017-Sep-25 00:01N 37°35' E 023°36'3 6.7
2017-Sep-24 23:31N 37°31' E 023°38'3 6.4
2017-Sep-24 23:01N 37°28' E 023°39'10 6.2
2017-Sep-24 21:22N 37°22' E 023°29'1 0.9
2017-Sep-24 19:45N 37°21' E 023°27'0 0.0
2017-Sep-24 19:25N 37°21' E 023°27'0 0.0
2017-Sep-24 05:40N 37°21' E 023°27'0 1.8
2017-Sep-24 05:28N 37°21' E 023°27'2 1.0
2017-Sep-24 03:05N 37°22' E 023°24'0 0.3
2017-Sep-24 01:39N 37°22' E 023°25'1 5.4
2017-Sep-24 01:28N 37°22' E 023°24'0 0.5
2017-Sep-24 00:55N 37°22' E 023°23'0 0.4
2017-Sep-24 00:28N 37°22' E 023°23'0 0.4
2017-Sep-23 23:50N 37°22' E 023°23'0 0.4
2017-Sep-23 23:06N 37°22' E 023°23'0 0.4
2017-Sep-23 22:59N 37°22' E 023°23'0 0.3
2017-Sep-23 22:21N 37°22' E 023°23'1 2.7
2017-Sep-23 21:58N 37°23' E 023°25'69 1.4
2017-Sep-21 22:18N 37°11' E 024°50'413.5
2017-Sep-21 22:00N 37°11' E 024°55'713.7
2017-Sep-21 21:30N 37°10' E 025°03'713.6
2017-Sep-21 21:01N 37°10' E 025°12'3 5.3
2017-Sep-21 20:29N 37°08' E 025°14'0 0.0
2017-Sep-21 20:00N 37°08' E 025°14'0 0.1
2017-Sep-21 19:30N 37°08' E 025°14'0 0.0
2017-Sep-21 19:00N 37°08' E 025°14'0 0.0
2017-Sep-21 18:28N 37°08' E 025°14'0 0.0
2017-Sep-21 17:58N 37°08' E 025°14'0 0.0
2017-Sep-21 17:28N 37°08' E 025°14'0 0.0
2017-Sep-21 16:59N 37°08' E 025°14'0 0.0
2017-Sep-21 16:29N 37°08' E 025°14'0 0.1
2017-Sep-21 15:59N 37°08' E 025°14'0 0.1
2017-Sep-21 15:30N 37°08' E 025°14'0 0.1
2017-Sep-21 15:00N 37°08' E 025°14'0 0.0
2017-Sep-21 14:30N 37°08' E 025°14'0 0.0
2017-Sep-21 13:58N 37°08' E 025°14'0 0.1
2017-Sep-21 13:28N 37°08' E 025°14'0 0.0
2017-Sep-21 12:59N 37°08' E 025°14'0 0.1
2017-Sep-21 12:29N 37°08' E 025°14'0 0.0
2017-Sep-21 11:56N 37°08' E 025°14'0 0.0
2017-Sep-21 11:30N 37°08' E 025°14'0 0.0
2017-Sep-21 11:00N 37°08' E 025°14'0 0.1
2017-Sep-21 10:30N 37°08' E 025°14'0 0.0
2017-Sep-21 10:00N 37°08' E 025°14'0 0.0
2017-Sep-21 09:28N 37°08' E 025°14'0 0.0
2017-Sep-21 08:58N 37°08' E 025°14'0 0.0
2017-Sep-21 08:29N 37°08' E 025°14'0 0.0
2017-Sep-21 07:59N 37°08' E 025°14'0 0.0
2017-Sep-21 07:29N 37°08' E 025°14'0 0.0
2017-Sep-21 07:01N 37°08' E 025°14'0 0.0
2017-Sep-21 06:31N 37°08' E 025°14'0 0.0
2017-Sep-21 06:01N 37°08' E 025°14'0 0.0
2017-Sep-21 05:31N 37°08' E 025°14'0 0.1
2017-Sep-21 05:01N 37°08' E 025°14'3 5.6
2017-Sep-21 04:30N 37°09' E 025°11'4 8.8
2017-Sep-21 04:01N 37°09' E 025°06'4 7.4
2017-Sep-21 03:31N 37°07' E 025°01'4 7.3
2017-Sep-21 03:01N 37°05' E 024°58'5 0.2
2017-Sep-20 02:10N 37°08' E 024°53'1 6.3
2017-Sep-20 02:00N 37°09' E 024°54'3 5.8
2017-Sep-20 01:31N 37°10' E 024°58'3 5.5
2017-Sep-20 01:01N 37°10' E 025°01'3 5.4
2017-Sep-20 00:31N 37°10' E 025°04'3 5.1
2017-Sep-20 00:01N 37°11' E 025°08'3 5.3
2017-Sep-19 23:30N 37°11' E 025°11'3 5.6
2017-Sep-19 23:00N 37°11' E 025°15'3 5.6
2017-Sep-19 22:31N 37°11' E 025°18'3 5.7
2017-Sep-19 22:00N 37°08' E 025°19'3 6.8
2017-Sep-19 21:30N 37°05' E 025°19'2 3.0
2017-Sep-19 20:59N 37°04' E 025°21'0 0.0
2017-Sep-19 20:30N 37°04' E 025°21'0 0.0
2017-Sep-19 20:00N 37°04' E 025°21'0 0.0
2017-Sep-19 19:30N 37°04' E 025°21'0 0.0
2017-Sep-19 18:58N 37°04' E 025°21'0 0.0
2017-Sep-19 18:28N 37°04' E 025°21'0 0.0
2017-Sep-19 17:58N 37°04' E 025°21'0 0.0
2017-Sep-19 17:29N 37°04' E 025°21'0 0.0
2017-Sep-19 16:59N 37°04' E 025°21'0 0.0
2017-Sep-19 16:29N 37°04' E 025°21'0 0.0
2017-Sep-19 15:57N 37°04' E 025°21'0 0.1
2017-Sep-19 15:30N 37°04' E 025°21'0 0.1
2017-Sep-19 15:00N 37°04' E 025°21'0 0.0
2017-Sep-19 14:28N 37°04' E 025°21'0 0.0
2017-Sep-19 13:58N 37°04' E 025°21'0 0.0
2017-Sep-19 13:28N 37°04' E 025°21'0 0.0
2017-Sep-19 12:59N 37°04' E 025°21'0 0.0
2017-Sep-19 12:29N 37°04' E 025°21'0 0.0
2017-Sep-19 11:59N 37°04' E 025°21'0 0.0
2017-Sep-19 11:30N 37°04' E 025°21'0 0.0
2017-Sep-19 11:00N 37°04' E 025°21'0 0.0
2017-Sep-19 10:30N 37°04' E 025°21'0 0.0
2017-Sep-19 09:58N 37°04' E 025°21'0 0.0
2017-Sep-19 09:25N 37°04' E 025°21'0 0.0
2017-Sep-19 08:58N 37°04' E 025°21'0 0.0
2017-Sep-19 08:29N 37°04' E 025°21'0 0.0
2017-Sep-19 07:59N 37°04' E 025°21'0 0.0
2017-Sep-19 07:29N 37°04' E 025°21'0 0.0
2017-Sep-19 07:00N 37°04' E 025°21'0 0.0
2017-Sep-19 06:30N 37°04' E 025°21'0 0.0
2017-Sep-19 05:57N 37°04' E 025°21'0 0.0
2017-Sep-19 05:28N 37°04' E 025°21'0 0.0
2017-Sep-19 04:58N 37°04' E 025°21'0 0.0
2017-Sep-19 04:28N 37°04' E 025°21'0 0.0
2017-Sep-19 03:59N 37°04' E 025°21'0 0.0
2017-Sep-19 03:29N 37°04' E 025°21'0 0.2
2017-Sep-19 03:00N 37°04' E 025°21'2 4.5
2017-Sep-19 02:31N 37°06' E 025°19'4 7.1
2017-Sep-19 02:00N 37°09' E 025°19'3 6.7
2017-Sep-19 01:30N 37°13' E 025°18'3 6.1
2017-Sep-19 01:00N 37°16' E 025°18'2 4.2
2017-Sep-19 00:31N 37°18' E 025°18'3 5.1
2017-Sep-19 00:00N 37°20' E 025°17'2 5.0
2017-Sep-18 23:30N 37°23' E 025°17'3 6.3
2017-Sep-18 23:01N 37°26' E 025°17'2 3.4
2017-Sep-18 22:30N 37°27' E 025°19'0 0.0
2017-Sep-18 21:57N 37°27' E 025°19'0 0.0
2017-Sep-18 21:30N 37°27' E 025°19'0 0.0
2017-Sep-18 21:00N 37°27' E 025°19'0 0.0
2017-Sep-18 20:28N 37°27' E 025°19'0 0.0
2017-Sep-18 19:58N 37°27' E 025°19'0 0.0
2017-Sep-18 19:28N 37°27' E 025°19'0 0.0
2017-Sep-18 18:59N 37°27' E 025°19'0 0.0
2017-Sep-18 18:29N 37°27' E 025°19'0 0.0
2017-Sep-18 17:59N 37°27' E 025°19'0 0.0
2017-Sep-18 17:30N 37°27' E 025°19'0 0.0
2017-Sep-18 17:00N 37°27' E 025°19'0 0.0
2017-Sep-18 16:30N 37°27' E 025°19'0 0.0
2017-Sep-18 15:55N 37°27' E 025°19'0 0.0
2017-Sep-18 15:25N 37°27' E 025°19'0 0.0
2017-Sep-18 14:58N 37°27' E 025°19'0 0.0
2017-Sep-18 14:29N 37°27' E 025°19'0 0.0
2017-Sep-18 13:59N 37°27' E 025°19'0 0.0
2017-Sep-18 13:29N 37°27' E 025°19'0 0.0
2017-Sep-18 13:00N 37°27' E 025°19'0 0.0
2017-Sep-18 12:30N 37°27' E 025°19'0 0.0
2017-Sep-18 12:00N 37°27' E 025°19'0 0.0
2017-Sep-18 11:28N 37°27' E 025°19'0 0.0
2017-Sep-18 10:58N 37°27' E 025°19'0 0.0
2017-Sep-18 10:28N 37°27' E 025°19'0 0.0
2017-Sep-18 09:59N 37°27' E 025°19'0 0.0
2017-Sep-18 09:29N 37°27' E 025°19'0 0.0
2017-Sep-18 08:56N 37°27' E 025°19'0 0.0
2017-Sep-18 08:30N 37°27' E 025°19'0 0.0
2017-Sep-18 08:00N 37°27' E 025°19'0 0.0
2017-Sep-18 07:30N 37°27' E 025°19'0 0.0
2017-Sep-18 06:58N 37°27' E 025°19'0 0.0
2017-Sep-18 06:28N 37°27' E 025°19'0 0.0
2017-Sep-18 05:58N 37°27' E 025°19'0 0.0
2017-Sep-18 05:29N 37°27' E 025°19'0 0.0
2017-Sep-18 05:00N 37°27' E 025°19'2 4.6
2017-Sep-18 04:30N 37°25' E 025°17'4 7.2
2017-Sep-18 04:01N 37°22' E 025°20'5 9.3
2017-Sep-18 03:30N 37°22' E 025°26'5 9.6
2017-Sep-18 03:00N 37°21' E 025°32'5 9.4
2017-Sep-18 02:30N 37°20' E 025°38'5 9.6
2017-Sep-18 02:00N 37°20' E 025°44'5 9.7
2017-Sep-18 01:31N 37°19' E 025°49'  
2017-Sep-15 20:45N 36°60' E 024°11'2 9.3
2017-Sep-15 20:29N 37°01' E 024°08'5 9.4
2017-Sep-15 20:00N 37°02' E 024°03'5 9.3
2017-Sep-15 19:30N 37°04' E 023°57'5 9.0
2017-Sep-15 19:00N 37°05' E 023°52'4 9.0
2017-Sep-15 18:30N 37°07' E 023°47'4 8.8
2017-Sep-15 18:00N 37°08' E 023°41'5 9.0
2017-Sep-15 17:30N 37°10' E 023°36'4 8.8
2017-Sep-15 17:00N 37°11' E 023°31'7 9.0
2017-Sep-15 16:15N 37°13' E 023°23'  
Track history (hours):
 
Tides and Currents Weather Stations Pressure Air Temp Water Temp Dewpoint Dewpoint Depression Visibility Wind Speed Wind Dir Waves Ship Positions

Seadream 1

Last reported at 2017-Sep-25 06:21 UTC. Time now 2017-Sep-26 03:59 UTC.
Position N 37°60' E 022°53'.

Length 105 m; draft 4.3 m.

Type: Ship. MMSI: 308908000.

Date/timePositionNaut miles runAvg speedWind from/ knotsBaromVisibWave heightAir tempDewpointWater temp
2017-Sep-25 06:21N 37°60' E 022°53'413.0
2017-Sep-25 06:00N 37°57' E 022°57'3 4.5
2017-Sep-25 05:21N 37°55' E 023°00'2 4.9
2017-Sep-25 05:01N 37°54' E 023°02'3 5.2
2017-Sep-25 04:30N 37°53' E 023°05'4 7.2
2017-Sep-25 04:00N 37°51' E 023°08'4 7.1
2017-Sep-25 03:30N 37°48' E 023°12'4 7.5
2017-Sep-25 03:01N 37°46' E 023°15'4 7.4
2017-Sep-25 02:29N 37°42' E 023°17'3 6.6
2017-Sep-25 02:00N 37°40' E 023°20'4 7.4
2017-Sep-25 01:30N 37°39' E 023°24'4 7.4
2017-Sep-25 01:01N 37°38' E 023°29'4 7.4
2017-Sep-25 00:30N 37°37' E 023°33'3 6.8
2017-Sep-25 00:01N 37°35' E 023°36'3 6.7
2017-Sep-24 23:31N 37°31' E 023°38'3 6.4
2017-Sep-24 23:01N 37°28' E 023°39'10 6.2
2017-Sep-24 21:22N 37°22' E 023°29'1 0.9
2017-Sep-24 19:45N 37°21' E 023°27'0 0.0
2017-Sep-24 19:25N 37°21' E 023°27'0 0.0
2017-Sep-24 05:40N 37°21' E 023°27'0 1.8
2017-Sep-24 05:28N 37°21' E 023°27'2 1.0
2017-Sep-24 03:05N 37°22' E 023°24'0 0.3
2017-Sep-24 01:39N 37°22' E 023°25'1 5.4
2017-Sep-24 01:28N 37°22' E 023°24'0 0.5
2017-Sep-24 00:55N 37°22' E 023°23'0 0.4
2017-Sep-24 00:28N 37°22' E 023°23'0 0.4
2017-Sep-23 23:50N 37°22' E 023°23'0 0.4
2017-Sep-23 23:06N 37°22' E 023°23'0 0.4
2017-Sep-23 22:59N 37°22' E 023°23'0 0.3
2017-Sep-23 22:21N 37°22' E 023°23'1 2.7
2017-Sep-23 21:58N 37°23' E 023°25'69 1.4
2017-Sep-21 22:18N 37°11' E 024°50'413.5
2017-Sep-21 22:00N 37°11' E 024°55'713.7
2017-Sep-21 21:30N 37°10' E 025°03'713.6
2017-Sep-21 21:01N 37°10' E 025°12'3 5.3
2017-Sep-21 20:29N 37°08' E 025°14'0 0.0
2017-Sep-21 20:00N 37°08' E 025°14'0 0.1
2017-Sep-21 19:30N 37°08' E 025°14'0 0.0
2017-Sep-21 19:00N 37°08' E 025°14'0 0.0
2017-Sep-21 18:28N 37°08' E 025°14'0 0.0
2017-Sep-21 17:58N 37°08' E 025°14'0 0.0
2017-Sep-21 17:28N 37°08' E 025°14'0 0.0
2017-Sep-21 16:59N 37°08' E 025°14'0 0.0
2017-Sep-21 16:29N 37°08' E 025°14'0 0.1
2017-Sep-21 15:59N 37°08' E 025°14'0 0.1
2017-Sep-21 15:30N 37°08' E 025°14'0 0.1
2017-Sep-21 15:00N 37°08' E 025°14'0 0.0
2017-Sep-21 14:30N 37°08' E 025°14'0 0.0
2017-Sep-21 13:58N 37°08' E 025°14'0 0.1
2017-Sep-21 13:28N 37°08' E 025°14'0 0.0
2017-Sep-21 12:59N 37°08' E 025°14'0 0.1
2017-Sep-21 12:29N 37°08' E 025°14'0 0.0
2017-Sep-21 11:56N 37°08' E 025°14'0 0.0
2017-Sep-21 11:30N 37°08' E 025°14'0 0.0
2017-Sep-21 11:00N 37°08' E 025°14'0 0.1
2017-Sep-21 10:30N 37°08' E 025°14'0 0.0
2017-Sep-21 10:00N 37°08' E 025°14'0 0.0
2017-Sep-21 09:28N 37°08' E 025°14'0 0.0
2017-Sep-21 08:58N 37°08' E 025°14'0 0.0
2017-Sep-21 08:29N 37°08' E 025°14'0 0.0
2017-Sep-21 07:59N 37°08' E 025°14'0 0.0
2017-Sep-21 07:29N 37°08' E 025°14'0 0.0
2017-Sep-21 07:01N 37°08' E 025°14'0 0.0
2017-Sep-21 06:31N 37°08' E 025°14'0 0.0
2017-Sep-21 06:01N 37°08' E 025°14'0 0.0
2017-Sep-21 05:31N 37°08' E 025°14'0 0.1
2017-Sep-21 05:01N 37°08' E 025°14'3 5.6
2017-Sep-21 04:30N 37°09' E 025°11'4 8.8
2017-Sep-21 04:01N 37°09' E 025°06'4 7.4
2017-Sep-21 03:31N 37°07' E 025°01'4 7.3
2017-Sep-21 03:01N 37°05' E 024°58'5 0.2
2017-Sep-20 02:10N 37°08' E 024°53'1 6.3
2017-Sep-20 02:00N 37°09' E 024°54'3 5.8
2017-Sep-20 01:31N 37°10' E 024°58'3 5.5
2017-Sep-20 01:01N 37°10' E 025°01'3 5.4
2017-Sep-20 00:31N 37°10' E 025°04'3 5.1
2017-Sep-20 00:01N 37°11' E 025°08'3 5.3
2017-Sep-19 23:30N 37°11' E 025°11'3 5.6
2017-Sep-19 23:00N 37°11' E 025°15'3 5.6
2017-Sep-19 22:31N 37°11' E 025°18'3 5.7
2017-Sep-19 22:00N 37°08' E 025°19'3 6.8
2017-Sep-19 21:30N 37°05' E 025°19'2 3.0
2017-Sep-19 20:59N 37°04' E 025°21'0 0.0
2017-Sep-19 20:30N 37°04' E 025°21'0 0.0
2017-Sep-19 20:00N 37°04' E 025°21'0 0.0
2017-Sep-19 19:30N 37°04' E 025°21'0 0.0
2017-Sep-19 18:58N 37°04' E 025°21'0 0.0
2017-Sep-19 18:28N 37°04' E 025°21'0 0.0
2017-Sep-19 17:58N 37°04' E 025°21'0 0.0
2017-Sep-19 17:29N 37°04' E 025°21'0 0.0
2017-Sep-19 16:59N 37°04' E 025°21'0 0.0
2017-Sep-19 16:29N 37°04' E 025°21'0 0.0
2017-Sep-19 15:57N 37°04' E 025°21'0 0.1
2017-Sep-19 15:30N 37°04' E 025°21'0 0.1
2017-Sep-19 15:00N 37°04' E 025°21'0 0.0
2017-Sep-19 14:28N 37°04' E 025°21'0 0.0
2017-Sep-19 13:58N 37°04' E 025°21'0 0.0
2017-Sep-19 13:28N 37°04' E 025°21'0 0.0
2017-Sep-19 12:59N 37°04' E 025°21'0 0.0
2017-Sep-19 12:29N 37°04' E 025°21'0 0.0
2017-Sep-19 11:59N 37°04' E 025°21'0 0.0
2017-Sep-19 11:30N 37°04' E 025°21'0 0.0
2017-Sep-19 11:00N 37°04' E 025°21'0 0.0
2017-Sep-19 10:30N 37°04' E 025°21'0 0.0
2017-Sep-19 09:58N 37°04' E 025°21'0 0.0
2017-Sep-19 09:25N 37°04' E 025°21'0 0.0
2017-Sep-19 08:58N 37°04' E 025°21'0 0.0
2017-Sep-19 08:29N 37°04' E 025°21'0 0.0
2017-Sep-19 07:59N 37°04' E 025°21'0 0.0
2017-Sep-19 07:29N 37°04' E 025°21'0 0.0
2017-Sep-19 07:00N 37°04' E 025°21'0 0.0
2017-Sep-19 06:30N 37°04' E 025°21'0 0.0
2017-Sep-19 05:57N 37°04' E 025°21'0 0.0
2017-Sep-19 05:28N 37°04' E 025°21'0 0.0
2017-Sep-19 04:58N 37°04' E 025°21'0 0.0
2017-Sep-19 04:28N 37°04' E 025°21'0 0.0
2017-Sep-19 03:59N 37°04' E 025°21'0 0.0
2017-Sep-19 03:29N 37°04' E 025°21'0 0.2
2017-Sep-19 03:00N 37°04' E 025°21'2 4.5
2017-Sep-19 02:31N 37°06' E 025°19'4 7.1
2017-Sep-19 02:00N 37°09' E 025°19'3 6.7
2017-Sep-19 01:30N 37°13' E 025°18'3 6.1
2017-Sep-19 01:00N 37°16' E 025°18'2 4.2
2017-Sep-19 00:31N 37°18' E 025°18'3 5.1
2017-Sep-19 00:00N 37°20' E 025°17'2 5.0
2017-Sep-18 23:30N 37°23' E 025°17'3 6.3
2017-Sep-18 23:01N 37°26' E 025°17'2 3.4
2017-Sep-18 22:30N 37°27' E 025°19'0 0.0
2017-Sep-18 21:57N 37°27' E 025°19'0 0.0
2017-Sep-18 21:30N 37°27' E 025°19'0 0.0
2017-Sep-18 21:00N 37°27' E 025°19'0 0.0
2017-Sep-18 20:28N 37°27' E 025°19'0 0.0
2017-Sep-18 19:58N 37°27' E 025°19'0 0.0
2017-Sep-18 19:28N 37°27' E 025°19'0 0.0
2017-Sep-18 18:59N 37°27' E 025°19'0 0.0
2017-Sep-18 18:29N 37°27' E 025°19'0 0.0
2017-Sep-18 17:59N 37°27' E 025°19'0 0.0
2017-Sep-18 17:30N 37°27' E 025°19'0 0.0
2017-Sep-18 17:00N 37°27' E 025°19'0 0.0
2017-Sep-18 16:30N 37°27' E 025°19'0 0.0
2017-Sep-18 15:55N 37°27' E 025°19'0 0.0
2017-Sep-18 15:25N 37°27' E 025°19'0 0.0
2017-Sep-18 14:58N 37°27' E 025°19'0 0.0
2017-Sep-18 14:29N 37°27' E 025°19'0 0.0
2017-Sep-18 13:59N 37°27' E 025°19'0 0.0
2017-Sep-18 13:29N 37°27' E 025°19'0 0.0
2017-Sep-18 13:00N 37°27' E 025°19'0 0.0
2017-Sep-18 12:30N 37°27' E 025°19'0 0.0
2017-Sep-18 12:00N 37°27' E 025°19'0 0.0
2017-Sep-18 11:28N 37°27' E 025°19'0 0.0
2017-Sep-18 10:58N 37°27' E 025°19'0 0.0
2017-Sep-18 10:28N 37°27' E 025°19'0 0.0
2017-Sep-18 09:59N 37°27' E 025°19'0 0.0
2017-Sep-18 09:29N 37°27' E 025°19'0 0.0
2017-Sep-18 08:56N 37°27' E 025°19'0 0.0
2017-Sep-18 08:30N 37°27' E 025°19'0 0.0
2017-Sep-18 08:00N 37°27' E 025°19'0 0.0
2017-Sep-18 07:30N 37°27' E 025°19'0 0.0
2017-Sep-18 06:58N 37°27' E 025°19'0 0.0
2017-Sep-18 06:28N 37°27' E 025°19'0 0.0
2017-Sep-18 05:58N 37°27' E 025°19'0 0.0
2017-Sep-18 05:29N 37°27' E 025°19'0 0.0
2017-Sep-18 05:00N 37°27' E 025°19'2 4.6
2017-Sep-18 04:30N 37°25' E 025°17'4 7.2
2017-Sep-18 04:01N 37°22' E 025°20'5 9.3
2017-Sep-18 03:30N 37°22' E 025°26'5 9.6
2017-Sep-18 03:00N 37°21' E 025°32'5 9.4
2017-Sep-18 02:30N 37°20' E 025°38'5 9.6
2017-Sep-18 02:00N 37°20' E 025°44'5 9.7
2017-Sep-18 01:31N 37°19' E 025°49'  
2017-Sep-15 20:45N 36°60' E 024°11'2 9.3
2017-Sep-15 20:29N 37°01' E 024°08'5 9.4
2017-Sep-15 20:00N 37°02' E 024°03'5 9.3
2017-Sep-15 19:30N 37°04' E 023°57'5 9.0
2017-Sep-15 19:00N 37°05' E 023°52'4 9.0
2017-Sep-15 18:30N 37°07' E 023°47'4 8.8
2017-Sep-15 18:00N 37°08' E 023°41'5 9.0
2017-Sep-15 17:30N 37°10' E 023°36'4 8.8
2017-Sep-15 17:00N 37°11' E 023°31'7 9.0
2017-Sep-15 16:15N 37°13' E 023°23'  

Dump ship's entire track history